createdAt,value
2024-02-17T00:00:51.652Z,9.93
2024-02-17T00:03:24.802Z,9.27
2024-02-17T00:05:52.731Z,8.80
2024-02-17T00:08:19.793Z,10.23
2024-02-17T00:10:46.906Z,9.50
2024-02-17T00:13:13.940Z,9.90
2024-02-17T00:15:41.008Z,8.93
2024-02-17T00:18:08.870Z,9.40
2024-02-17T00:20:37.286Z,9.27
2024-02-17T00:23:04.615Z,9.23
2024-02-17T00:25:31.513Z,8.90
2024-02-17T00:27:58.386Z,9.20
2024-02-17T00:30:25.492Z,9.18
2024-02-17T00:32:52.799Z,8.88
2024-02-17T00:35:19.669Z,7.88
2024-02-17T00:37:46.955Z,9.13
2024-02-17T00:40:15.117Z,9.10
2024-02-17T00:42:42.351Z,9.35
2024-02-17T00:45:10.109Z,8.20
2024-02-17T00:47:37.338Z,8.93
2024-02-17T00:50:04.615Z,9.00
2024-02-17T00:52:31.564Z,8.27
2024-02-17T00:54:58.483Z,7.63
2024-02-17T00:57:25.394Z,8.13
2024-02-17T00:59:52.263Z,9.57
2024-02-17T01:02:19.287Z,9.10
2024-02-17T01:04:46.435Z,7.68
2024-02-17T01:07:13.568Z,8.63
2024-02-17T01:09:40.702Z,8.27
2024-02-17T01:12:07.868Z,8.85
2024-02-17T01:14:35.289Z,9.43
2024-02-17T01:17:02.338Z,8.38
2024-02-17T01:19:29.412Z,7.85
2024-02-17T01:21:56.495Z,9.20
2024-02-17T01:24:23.443Z,9.63
2024-02-17T01:26:50.416Z,8.18
2024-02-17T01:29:20.384Z,9.43
2024-02-17T01:34:14.569Z,9.68
2024-02-17T01:36:41.543Z,9.13
2024-02-17T01:39:12.208Z,9.02
2024-02-17T01:41:39.163Z,8.85
2024-02-17T01:44:08.107Z,9.10
2024-02-17T01:46:35.032Z,9.02
2024-02-17T01:49:02.036Z,8.88
2024-02-17T01:51:29.545Z,9.65
2024-02-17T01:53:57.093Z,8.15
2024-02-17T01:56:26.703Z,9.15
2024-02-17T01:58:56.917Z,7.63
2024-02-17T02:01:25.001Z,8.65
2024-02-17T02:03:52.270Z,8.23
2024-02-17T02:06:22.242Z,8.05
2024-02-17T02:08:50.085Z,9.13
2024-02-17T02:11:17.752Z,8.15
2024-02-17T02:13:44.686Z,8.88
2024-02-17T02:16:12.104Z,8.60
2024-02-17T02:18:39.212Z,10.43
2024-02-17T02:21:06.757Z,8.20
2024-02-17T02:23:36.409Z,8.75
2024-02-17T02:26:03.357Z,8.88
2024-02-17T02:28:31.984Z,8.93
2024-02-17T02:31:01.887Z,8.27
2024-02-17T02:33:29.905Z,9.60
2024-02-17T02:35:56.909Z,8.65
2024-02-17T02:38:23.751Z,7.93
2024-02-17T02:40:50.859Z,8.68
2024-02-17T02:43:18.666Z,8.98
2024-02-17T02:45:45.861Z,8.73
2024-02-17T02:48:12.975Z,8.32
2024-02-17T02:50:40.221Z,9.68
2024-02-17T02:53:09.767Z,10.35
2024-02-17T02:55:36.722Z,8.90
2024-02-17T02:58:03.935Z,8.68
2024-02-17T03:00:30.950Z,9.63
2024-02-17T03:02:57.935Z,10.30
2024-02-17T03:05:25.202Z,9.07
2024-02-17T03:07:53.029Z,8.00
2024-02-17T03:10:20.292Z,9.60
2024-02-17T03:12:47.451Z,9.35
2024-02-17T03:15:14.547Z,8.45
2024-02-17T03:17:41.625Z,8.98
2024-02-17T03:20:09.553Z,8.10
2024-02-17T03:22:36.747Z,8.38
2024-02-17T03:25:03.862Z,9.27
2024-02-17T03:27:31.066Z,8.93
2024-02-17T03:29:57.985Z,8.52
2024-02-17T03:32:25.447Z,9.02
2024-02-17T03:34:52.745Z,8.63
2024-02-17T03:37:20.692Z,8.13
2024-02-17T03:39:49.532Z,8.02
2024-02-17T03:42:16.688Z,8.52
2024-02-17T03:44:43.761Z,8.70
2024-02-17T03:47:12.587Z,7.45
2024-02-17T03:49:39.747Z,9.15
2024-02-17T03:52:07.474Z,8.05
2024-02-17T03:54:34.509Z,9.02
2024-02-17T03:57:01.871Z,7.88
2024-02-17T03:59:28.852Z,7.53
2024-02-17T04:02:00.773Z,8.45
2024-02-17T04:04:27.992Z,7.65
2024-02-17T04:06:55.066Z,6.03
2024-02-17T04:09:22.181Z,6.97
2024-02-17T04:11:49.235Z,5.90
2024-02-17T04:14:16.302Z,6.63
2024-02-17T04:16:43.352Z,6.38
2024-02-17T04:19:10.624Z,6.40
2024-02-17T04:21:37.860Z,6.53
2024-02-17T04:24:05.167Z,5.05
2024-02-17T04:26:32.073Z,6.72
2024-02-17T04:28:59.284Z,6.15
2024-02-17T04:31:26.200Z,6.57
2024-02-17T04:33:54.304Z,6.35
2024-02-17T04:36:21.315Z,6.50
2024-02-17T04:38:48.428Z,6.05
2024-02-17T04:41:15.347Z,5.07
2024-02-17T04:43:42.436Z,4.93
2024-02-17T04:46:09.687Z,3.95
2024-02-17T04:48:36.583Z,4.35
2024-02-17T04:51:04.274Z,3.75
2024-02-17T04:53:31.117Z,4.22
2024-02-17T04:55:58.031Z,3.90
2024-02-17T04:58:25.341Z,4.40
2024-02-17T05:00:52.298Z,4.63
2024-02-17T05:03:19.571Z,3.80
2024-02-17T05:05:46.719Z,4.47
2024-02-17T05:08:14.808Z,3.55
2024-02-17T05:10:41.773Z,3.55
2024-02-17T05:13:08.787Z,3.50
2024-02-17T05:15:36.755Z,3.08
2024-02-17T05:18:04.666Z,2.60
2024-02-17T05:20:31.978Z,3.47
2024-02-17T05:22:59.984Z,2.75
2024-02-17T05:25:27.085Z,3.55
2024-02-17T05:27:54.311Z,2.92
2024-02-17T05:30:21.891Z,2.95
2024-02-17T05:32:49.833Z,2.63
2024-02-17T05:35:17.260Z,2.90
2024-02-17T05:37:44.785Z,3.28
2024-02-17T05:40:13.850Z,3.22
2024-02-17T05:42:41.132Z,2.70
2024-02-17T05:45:09.108Z,3.00
2024-02-17T05:47:36.387Z,3.25
2024-02-17T05:50:05.360Z,3.28
2024-02-17T05:52:32.644Z,3.40
2024-02-17T05:54:59.635Z,3.15
2024-02-17T05:57:27.508Z,2.72
2024-02-17T05:59:54.496Z,2.60
2024-02-17T06:02:21.383Z,2.78
2024-02-17T06:04:48.507Z,2.55
2024-02-17T06:07:17.979Z,2.25
2024-02-17T06:09:45.125Z,2.25
2024-02-17T06:12:12.519Z,2.15
2024-02-17T06:14:39.477Z,2.13
2024-02-17T06:17:08.763Z,2.50
2024-02-17T06:19:54.669Z,1.98
2024-02-17T06:22:22.248Z,1.77
2024-02-17T06:24:49.389Z,1.83
2024-02-17T06:27:16.571Z,1.63
2024-02-17T06:29:44.738Z,1.80
2024-02-17T06:32:11.905Z,1.73
2024-02-17T06:34:40.019Z,1.70
2024-02-17T06:37:07.066Z,1.73
2024-02-17T06:39:35.832Z,1.98
2024-02-17T06:42:02.930Z,1.70
2024-02-17T06:44:29.918Z,1.50
2024-02-17T06:46:57.084Z,1.60
2024-02-17T06:49:24.270Z,1.75
2024-02-17T06:51:51.630Z,1.73
2024-02-17T06:54:18.864Z,2.22
2024-02-17T06:56:46.028Z,2.45
2024-02-17T06:59:12.854Z,2.30
2024-02-17T07:01:39.869Z,2.03
2024-02-17T07:04:07.161Z,1.85
2024-02-17T07:06:34.300Z,2.30
2024-02-17T07:09:01.345Z,2.33
2024-02-17T07:11:28.370Z,2.50
2024-02-17T07:13:55.862Z,2.42
2024-02-17T07:16:22.816Z,2.13
2024-02-17T07:18:51.318Z,1.92
2024-02-17T07:21:18.503Z,2.30
2024-02-17T07:23:45.651Z,2.35
2024-02-17T07:26:12.704Z,2.35
2024-02-17T07:28:39.920Z,2.13
2024-02-17T07:31:07.062Z,2.25
2024-02-17T07:33:34.575Z,2.20
2024-02-17T07:36:02.179Z,1.92
2024-02-17T07:38:28.999Z,2.40
2024-02-17T07:40:55.904Z,2.55
2024-02-17T07:43:23.133Z,2.00
2024-02-17T07:45:50.545Z,2.50
2024-02-17T07:48:18.551Z,1.70
2024-02-17T07:50:45.881Z,2.13
2024-02-17T07:53:12.940Z,2.00
2024-02-17T07:55:39.856Z,2.38
2024-02-17T07:58:09.920Z,2.03
2024-02-17T08:00:37.596Z,2.08
2024-02-17T08:03:04.658Z,2.35
2024-02-17T08:05:31.795Z,1.88
2024-02-17T08:07:58.768Z,2.33
2024-02-17T08:10:25.802Z,2.00
2024-02-17T08:12:53.153Z,2.00
2024-02-17T08:15:20.243Z,2.33
2024-02-17T08:17:47.253Z,39.70
2024-02-17T08:20:14.527Z,2.45
2024-02-17T08:22:41.543Z,1.52
2024-02-17T08:25:10.665Z,1.60
2024-02-17T08:27:38.112Z,2.00
2024-02-17T08:30:06.481Z,2.10
2024-02-17T08:32:34.187Z,1.67
2024-02-17T08:35:02.393Z,2.10
2024-02-17T08:37:29.877Z,2.08
2024-02-17T08:39:56.869Z,2.28
2024-02-17T08:42:23.944Z,1.92
2024-02-17T08:44:54.264Z,1.90
2024-02-17T08:47:22.630Z,1.92
2024-02-17T08:49:50.538Z,1.67
2024-02-17T08:52:18.035Z,2.13
2024-02-17T08:54:45.223Z,1.83
2024-02-17T08:57:12.164Z,1.77
2024-02-17T08:59:39.158Z,1.30
2024-02-17T09:02:06.090Z,1.70
2024-02-17T09:04:32.966Z,1.58
2024-02-17T09:07:01.226Z,1.63
2024-02-17T09:09:29.811Z,1.67
2024-02-17T09:11:57.089Z,2.78
2024-02-17T09:14:24.284Z,1.40
2024-02-17T09:16:52.767Z,1.70
2024-02-17T09:19:19.956Z,2.92
2024-02-17T09:21:47.347Z,1.75
2024-02-17T09:24:20.675Z,1.73
2024-02-17T09:26:48.024Z,1.58
2024-02-17T09:29:15.077Z,1.92
2024-02-17T09:31:42.789Z,1.42
2024-02-17T09:34:10.052Z,1.58
2024-02-17T09:36:37.243Z,1.63
2024-02-17T09:39:04.405Z,1.33
2024-02-17T09:41:32.149Z,1.90
2024-02-17T09:43:59.157Z,1.65
2024-02-17T09:46:29.290Z,2.10
2024-02-17T09:49:00.819Z,1.38
2024-02-17T09:51:28.075Z,1.50
2024-02-17T09:53:56.946Z,1.48
2024-02-17T09:56:26.242Z,1.38
2024-02-17T09:58:54.278Z,1.73
2024-02-17T10:01:21.658Z,1.42
2024-02-17T10:03:48.782Z,1.52
2024-02-17T10:06:17.320Z,1.52
2024-02-17T10:08:47.697Z,1.75
2024-02-17T10:11:14.870Z,1.90
2024-02-17T10:13:43.741Z,1.67
2024-02-17T10:16:15.138Z,1.67
2024-02-17T10:18:43.405Z,2.00
2024-02-17T10:21:11.417Z,1.90
2024-02-17T10:23:39.096Z,2.30
2024-02-17T10:26:07.160Z,2.30
2024-02-17T10:28:34.937Z,2.22
2024-02-17T10:31:09.849Z,1.80
2024-02-17T10:33:39.101Z,1.77
2024-02-17T10:36:08.629Z,2.05
2024-02-17T10:38:36.654Z,1.58
2024-02-17T10:41:03.642Z,2.13
2024-02-17T10:43:30.914Z,2.42
2024-02-17T10:46:01.757Z,1.73
2024-02-17T10:48:29.088Z,1.55
2024-02-17T10:50:56.194Z,1.83
2024-02-17T10:53:31.525Z,2.50
2024-02-17T10:56:00.831Z,2.08
2024-02-17T10:58:27.751Z,1.77
2024-02-17T11:00:55.094Z,1.90
2024-02-17T11:03:27.007Z,2.22
2024-02-17T11:06:00.391Z,1.58
2024-02-17T11:08:28.011Z,2.53
2024-02-17T11:10:55.091Z,2.33
2024-02-17T11:13:28.329Z,2.40
2024-02-17T11:16:06.325Z,1.30
2024-02-17T11:18:36.584Z,1.65
2024-02-17T11:21:08.020Z,2.28
2024-02-17T11:23:35.687Z,1.70
2024-02-17T11:26:03.164Z,1.92
2024-02-17T11:28:32.106Z,2.72
2024-02-17T11:31:07.898Z,1.50
2024-02-17T11:36:11.760Z,1.60
2024-02-17T11:38:39.206Z,2.20
2024-02-17T11:41:06.407Z,1.35
2024-02-17T11:43:35.604Z,1.60
2024-02-17T11:46:04.628Z,1.70
2024-02-17T11:48:34.134Z,1.80
2024-02-17T11:51:14.357Z,1.33
2024-02-17T11:53:47.490Z,1.55
2024-02-17T11:56:15.580Z,1.80
2024-02-17T11:58:46.111Z,1.42
2024-02-17T12:01:15.056Z,1.55
2024-02-17T12:03:44.314Z,2.28
2024-02-17T12:06:12.292Z,1.55
2024-02-17T12:08:39.666Z,1.70
2024-02-17T12:11:06.977Z,2.08
2024-02-17T12:13:33.919Z,1.70
2024-02-17T12:16:09.345Z,1.88
2024-02-17T12:18:44.330Z,1.45
2024-02-17T12:21:12.948Z,1.63
2024-02-17T12:23:42.620Z,2.10
2024-02-17T12:26:17.098Z,1.73
2024-02-17T12:28:52.871Z,1.70
2024-02-17T12:31:21.325Z,1.63
2024-02-17T12:33:50.574Z,1.67
2024-02-17T12:36:19.292Z,1.35
2024-02-17T12:38:46.321Z,1.40
2024-02-17T12:41:16.504Z,1.80
2024-02-17T12:43:54.845Z,1.40
2024-02-17T12:46:25.418Z,1.60
2024-02-17T12:51:21.731Z,1.45
2024-02-17T12:53:49.719Z,1.63
2024-02-17T12:56:20.656Z,1.50
2024-02-17T12:58:49.285Z,1.88
2024-02-17T13:01:16.151Z,1.60
2024-02-17T13:03:43.336Z,1.20
2024-02-17T13:06:10.613Z,1.52
2024-02-17T13:08:37.830Z,1.55
2024-02-17T13:11:05.564Z,1.95
2024-02-17T13:13:34.414Z,1.50
2024-02-17T13:16:02.310Z,1.50
2024-02-17T13:18:29.420Z,2.38
2024-02-17T13:20:56.666Z,1.50
2024-02-17T13:23:23.697Z,2.17
2024-02-17T13:25:51.873Z,1.60
2024-02-17T13:28:19.147Z,1.35
2024-02-17T13:30:49.091Z,1.30
2024-02-17T13:33:18.248Z,1.60
2024-02-17T13:35:45.319Z,2.05
2024-02-17T13:38:21.896Z,1.60
2024-02-17T13:40:56.469Z,1.75
2024-02-17T13:43:23.818Z,1.70
2024-02-17T13:45:51.222Z,1.55
2024-02-17T13:48:18.527Z,1.65
2024-02-17T13:50:46.679Z,1.90
2024-02-17T13:53:13.965Z,1.63
2024-02-17T13:55:43.875Z,1.60
2024-02-17T13:58:13.002Z,1.95
2024-02-17T14:00:41.359Z,1.83
2024-02-17T14:03:09.594Z,1.80
2024-02-17T14:05:36.996Z,1.65
2024-02-17T14:08:04.172Z,1.52
2024-02-17T14:10:31.300Z,1.50
2024-02-17T14:13:00.724Z,1.83
2024-02-17T14:15:28.170Z,1.92
2024-02-17T14:17:55.516Z,2.25
2024-02-17T14:20:22.548Z,2.13
2024-02-17T14:22:49.725Z,2.28
2024-02-17T14:25:17.000Z,1.92
2024-02-17T14:27:44.095Z,1.88
2024-02-17T14:30:11.800Z,2.13
2024-02-17T14:32:38.974Z,2.28
2024-02-17T14:35:07.002Z,2.03
2024-02-17T14:37:34.024Z,2.03
2024-02-17T14:40:01.043Z,1.80
2024-02-17T14:42:28.533Z,1.98
2024-02-17T14:44:55.539Z,2.15
2024-02-17T14:47:22.464Z,1.73
2024-02-17T14:49:49.508Z,1.80
2024-02-17T14:52:16.884Z,1.80
2024-02-17T14:54:45.638Z,1.45
2024-02-17T14:57:13.747Z,1.75
2024-02-17T14:59:41.305Z,1.52
2024-02-17T15:02:08.806Z,2.28
2024-02-17T15:04:36.528Z,2.13
2024-02-17T15:07:04.058Z,1.80
2024-02-17T15:09:32.018Z,4.80
2024-02-17T15:12:00.263Z,3.58
2024-02-17T15:14:29.477Z,1.58
2024-02-17T15:16:57.154Z,1.73
2024-02-17T15:19:24.423Z,1.65
2024-02-17T15:21:51.570Z,1.65
2024-02-17T15:24:19.051Z,1.73
2024-02-17T15:26:46.669Z,1.38
2024-02-17T15:29:13.800Z,1.70
2024-02-17T15:31:40.752Z,1.42
2024-02-17T15:34:09.436Z,1.73
2024-02-17T15:36:37.824Z,1.70
2024-02-17T15:39:07.163Z,1.98
2024-02-17T15:41:34.522Z,1.75
2024-02-17T15:44:01.515Z,2.13
2024-02-17T15:46:28.428Z,1.67
2024-02-17T15:48:55.777Z,1.92
2024-02-17T15:51:22.913Z,2.17
2024-02-17T15:53:49.773Z,1.73
2024-02-17T15:56:18.562Z,1.52
2024-02-17T15:58:46.577Z,1.55
2024-02-17T16:01:14.133Z,1.85
2024-02-17T16:03:41.632Z,1.95
2024-02-17T16:06:10.162Z,2.08
2024-02-17T16:08:39.872Z,1.92
2024-02-17T16:11:09.046Z,2.22
2024-02-17T16:13:44.616Z,1.70
2024-02-17T16:16:13.931Z,2.10
2024-02-17T16:18:40.987Z,1.98
2024-02-17T16:21:08.474Z,2.08
2024-02-17T16:23:36.332Z,2.00
2024-02-17T16:26:05.908Z,2.03
2024-02-17T16:28:33.605Z,2.75
2024-02-17T16:31:02.049Z,2.42
2024-02-17T16:33:33.923Z,2.83
2024-02-17T16:36:04.205Z,2.17
2024-02-17T16:38:32.019Z,2.25
2024-02-17T16:41:03.065Z,2.22
2024-02-17T16:43:32.228Z,2.42
2024-02-17T16:46:01.028Z,2.45
2024-02-17T16:48:29.442Z,2.60
2024-02-17T16:50:58.502Z,2.38
2024-02-17T16:53:25.848Z,2.58
2024-02-17T16:55:52.919Z,2.35
2024-02-17T16:58:19.789Z,2.65
2024-02-17T17:00:46.990Z,3.25
2024-02-17T17:03:13.888Z,3.10
2024-02-17T17:05:41.057Z,2.90
2024-02-17T17:08:08.582Z,4.07
2024-02-17T17:10:35.529Z,2.65
2024-02-17T17:13:02.597Z,3.65
2024-02-17T17:15:29.728Z,2.78
2024-02-17T17:17:56.707Z,2.95
2024-02-17T17:20:24.769Z,3.40
2024-02-17T17:22:51.817Z,4.45
2024-02-17T17:25:18.744Z,3.60
2024-02-17T17:27:46.084Z,3.25
2024-02-17T17:30:13.967Z,3.13
2024-02-17T17:32:42.119Z,3.05
2024-02-17T17:35:09.973Z,2.90
2024-02-17T17:37:37.639Z,2.83
2024-02-17T17:40:06.569Z,3.67
2024-02-17T17:42:33.724Z,3.72
2024-02-17T17:45:00.875Z,3.80
2024-02-17T17:47:32.182Z,3.60
2024-02-17T17:49:59.496Z,4.43
2024-02-17T17:52:26.704Z,4.55
2024-02-17T17:54:54.039Z,4.65
2024-02-17T17:57:24.370Z,3.92
2024-02-17T17:59:52.270Z,3.92
2024-02-17T18:02:20.730Z,3.80
2024-02-17T18:04:48.012Z,3.90
2024-02-17T18:07:20.255Z,3.50
2024-02-17T18:09:47.267Z,3.55
2024-02-17T18:12:14.881Z,3.65
2024-02-17T18:14:42.208Z,3.30
2024-02-17T18:17:12.698Z,4.90
2024-02-17T18:19:39.591Z,4.00
2024-02-17T18:22:07.226Z,4.20
2024-02-17T18:24:34.155Z,5.03
2024-02-17T18:27:01.055Z,4.80
2024-02-17T18:29:28.215Z,13.32
2024-02-17T18:31:56.735Z,5.25
2024-02-17T18:34:23.879Z,5.30
2024-02-17T18:36:50.965Z,5.25
2024-02-17T18:39:17.916Z,5.32
2024-02-17T18:41:47.000Z,5.32
2024-02-17T18:44:14.001Z,4.93
2024-02-17T18:46:41.245Z,5.05
2024-02-17T18:49:09.366Z,5.32
2024-02-17T18:51:39.479Z,5.18
2024-02-17T18:54:07.777Z,4.25
2024-02-17T18:56:35.512Z,4.18
2024-02-17T18:59:02.482Z,3.95
2024-02-17T19:01:29.781Z,3.80
2024-02-17T19:03:57.067Z,3.90
2024-02-17T19:06:24.204Z,4.32
2024-02-17T19:08:53.204Z,6.15
2024-02-17T19:11:23.211Z,4.05
2024-02-17T19:13:50.095Z,3.92
2024-02-17T19:16:18.387Z,3.30
2024-02-17T19:18:45.502Z,3.50
2024-02-17T19:21:12.818Z,3.58
2024-02-17T19:23:40.604Z,3.45
2024-02-17T19:26:07.854Z,3.88
2024-02-17T19:28:34.767Z,3.72
2024-02-17T19:31:06.029Z,3.35
2024-02-17T19:33:33.387Z,6.38
2024-02-17T19:36:01.115Z,5.38
2024-02-17T19:38:27.936Z,4.03
2024-02-17T19:40:54.935Z,3.70
2024-02-17T19:43:21.882Z,3.60
2024-02-17T19:45:48.899Z,4.07
2024-02-17T19:48:16.268Z,4.10
2024-02-17T19:50:43.330Z,4.38
2024-02-17T19:53:11.441Z,3.97
2024-02-17T19:55:38.363Z,4.78
2024-02-17T19:58:07.361Z,4.63
2024-02-17T20:00:34.340Z,4.32
2024-02-17T20:03:02.057Z,3.88
2024-02-17T20:05:30.168Z,4.10
2024-02-17T20:07:57.309Z,4.43
2024-02-17T20:10:25.255Z,5.22
2024-02-17T20:12:52.804Z,5.93
2024-02-17T20:15:20.115Z,4.68
2024-02-17T20:17:47.227Z,6.22
2024-02-17T20:20:18.129Z,6.43
2024-02-17T20:22:47.394Z,6.18
2024-02-17T20:25:14.382Z,5.80
2024-02-17T20:27:41.919Z,6.22
2024-02-17T20:30:09.694Z,6.38
2024-02-17T20:32:36.657Z,7.38
2024-02-17T20:35:04.410Z,6.63
2024-02-17T20:37:31.618Z,7.63
2024-02-17T20:40:01.836Z,8.00
2024-02-17T20:42:29.727Z,11.00
2024-02-17T20:44:56.979Z,12.10
2024-02-17T20:47:24.293Z,16.77
2024-02-17T20:49:51.459Z,11.85
2024-02-17T20:52:18.708Z,11.45
2024-02-17T20:54:45.777Z,11.60
2024-02-17T20:57:12.877Z,11.80
2024-02-17T20:59:39.813Z,10.68
2024-02-17T21:02:06.816Z,8.82
2024-02-17T21:04:34.160Z,8.52
2024-02-17T21:07:01.426Z,8.77
2024-02-17T21:09:28.449Z,7.75
2024-02-17T21:11:55.467Z,6.97
2024-02-17T21:14:22.320Z,7.03
2024-02-17T21:16:49.338Z,7.75
2024-02-17T21:19:16.361Z,8.25
2024-02-17T21:21:43.609Z,7.88
2024-02-17T21:24:10.824Z,8.20
2024-02-17T21:26:37.855Z,8.77
2024-02-17T21:29:04.725Z,9.52
2024-02-17T21:31:31.677Z,9.52
2024-02-17T21:33:58.667Z,10.23
2024-02-17T21:36:26.315Z,9.48
2024-02-17T21:38:53.312Z,9.35
2024-02-17T21:41:20.832Z,8.50
2024-02-17T21:43:47.716Z,9.10
2024-02-17T21:46:14.780Z,9.15
2024-02-17T21:48:42.445Z,10.57
2024-02-17T21:51:17.754Z,9.00
2024-02-17T21:53:45.738Z,11.15
2024-02-17T21:56:12.695Z,11.50
2024-02-17T21:58:39.822Z,11.68
2024-02-17T22:01:07.157Z,10.68
2024-02-17T22:03:34.567Z,11.05
2024-02-17T22:06:01.826Z,12.50
2024-02-17T22:08:29.885Z,12.05
2024-02-17T22:10:57.077Z,12.82
2024-02-17T22:13:24.167Z,16.02
2024-02-17T22:15:51.194Z,13.40
2024-02-17T22:18:18.450Z,12.40
2024-02-17T22:20:47.193Z,11.18
2024-02-17T22:23:14.106Z,10.88
2024-02-17T22:25:43.395Z,10.23
2024-02-17T22:28:11.580Z,11.40
2024-02-17T22:30:38.509Z,11.95
2024-02-17T22:33:06.498Z,13.02
2024-02-17T22:35:33.612Z,12.40
2024-02-17T22:38:04.266Z,12.35
2024-02-17T22:40:32.984Z,12.65
2024-02-17T22:43:03.260Z,14.27
2024-02-17T22:45:30.866Z,13.90
2024-02-17T22:47:58.250Z,12.57
2024-02-17T22:50:25.453Z,12.70
2024-02-17T22:52:53.227Z,13.57
2024-02-17T22:55:20.396Z,14.45
2024-02-17T22:57:47.640Z,13.90
2024-02-17T23:00:23.706Z,15.35
2024-02-17T23:02:51.887Z,20.40
2024-02-17T23:05:20.349Z,18.80
2024-02-17T23:07:48.297Z,17.95
2024-02-17T23:10:15.553Z,19.38
2024-02-17T23:12:42.998Z,20.23
2024-02-17T23:15:13.581Z,20.48
2024-02-17T23:17:41.019Z,20.15
2024-02-17T23:20:14.130Z,20.65
2024-02-17T23:22:42.062Z,21.98
2024-02-17T23:25:10.295Z,21.23
2024-02-17T23:27:41.146Z,20.13
2024-02-17T23:30:12.543Z,19.95
2024-02-17T23:32:41.197Z,19.83
2024-02-17T23:35:08.477Z,19.10
2024-02-17T23:37:35.781Z,19.23
2024-02-17T23:40:03.940Z,20.73
2024-02-17T23:42:31.498Z,19.63
2024-02-17T23:44:58.533Z,20.23
2024-02-17T23:47:25.734Z,19.95
2024-02-17T23:49:53.752Z,20.70
2024-02-17T23:52:20.966Z,19.63
2024-02-17T23:54:47.964Z,21.13
2024-02-17T23:57:15.165Z,21.83
2024-02-17T23:59:43.415Z,20.33
